Time;durP1;ratioP1;P1;durP2;ratioP2;P2;SDS_P1;SDS_P2;PMS_P1;PMS_P2;Temp;Humidity;BMP_temperature;BMP_pressure;BME280_temperature;BME280_humidity;BME280_pressure;Samples;Min_cycle;Max_cycle;Signal;HPM_P1;HPM_P2
2023/12/07 00:00:17;;;;;;;23.23;14.15;;;3.30;99.90;;;;;;5115434;28;20165;-47
2023/12/07 00:02:43;;;;;;;20.73;13.45;;;3.40;99.90;;;;;;5114868;28;20157;-46
2023/12/07 00:05:08;;;;;;;23.88;14.80;;;3.30;99.90;;;;;;5114774;28;20169;-48
2023/12/07 00:07:34;;;;;;;23.05;13.98;;;3.30;99.90;;;;;;5096560;28;20215;-48
2023/12/07 00:10:01;;;;;;;21.20;13.70;;;3.30;99.90;;;;;;5114859;28;20184;-51
2023/12/07 00:12:27;;;;;;;18.52;13.82;;;3.20;99.90;;;;;;5096693;28;20316;-45
2023/12/07 00:14:52;;;;;;;22.45;13.65;;;3.20;99.90;;;;;;5095966;28;20249;-46
2023/12/07 00:17:18;;;;;;;23.23;13.55;;;3.40;99.90;;;;;;5075931;28;20692;-48
2023/12/07 00:19:44;;;;;;;25.85;13.95;;;3.30;99.90;;;;;;5076419;28;20577;-47
2023/12/07 00:22:10;;;;;;;22.77;14.88;;;3.30;99.90;;;;;;5076079;28;20648;-48
2023/12/07 00:24:36;;;;;;;24.85;14.10;;;3.30;99.90;;;;;;5103618;28;20175;-47
2023/12/07 00:27:02;;;;;;;22.88;14.65;;;3.20;99.90;;;;;;5114240;28;20245;-49
2023/12/07 00:29:28;;;;;;;23.33;14.93;;;3.30;99.90;;;;;;5114112;28;20157;-48
2023/12/07 00:31:54;;;;;;;23.50;14.90;;;3.40;99.90;;;;;;5096150;28;20191;-47
2023/12/07 00:34:20;;;;;;;25.60;15.93;;;3.40;99.90;;;;;;5114113;28;20617;-48
2023/12/07 00:36:46;;;;;;;21.50;14.93;;;3.30;99.90;;;;;;5096019;28;20214;-53
2023/12/07 00:39:12;;;;;;;21.50;13.35;;;3.20;99.90;;;;;;5096325;28;20175;-51
2023/12/07 00:41:38;;;;;;;24.38;15.05;;;3.30;99.90;;;;;;5113749;28;20239;-47
2023/12/07 00:44:05;;;;;;;24.88;13.75;;;3.40;99.90;;;;;;5094659;28;20173;-51
2023/12/07 00:46:31;;;;;;;24.20;14.20;;;3.20;99.90;;;;;;5113305;28;20215;-47
2023/12/07 00:48:58;;;;;;;22.98;14.45;;;3.30;99.90;;;;;;5113644;28;20165;-49
2023/12/07 00:51:24;;;;;;;22.85;15.02;;;3.40;99.90;;;;;;5113487;28;20219;-47
2023/12/07 00:53:53;;;;;;;24.08;15.63;;;3.30;99.90;;;;;;5095363;28;20173;-47
2023/12/07 00:56:19;;;;;;;19.88;14.57;;;3.30;99.90;;;;;;5114175;28;20172;-49
2023/12/07 00:58:45;;;;;;;22.75;14.45;;;3.20;99.90;;;;;;5114819;28;20165;-54
2023/12/07 01:01:11;;;;;;;20.27;12.98;;;3.40;99.90;;;;;;5095932;28;20654;-54
2023/12/07 01:04:01;;;;;;;23.25;13.70;;;3.30;99.90;;;;;;5114528;28;20405;-48
2023/12/07 01:06:55;;;;;;;22.20;14.75;;;3.20;99.90;;;;;;5095681;28;20208;-54
2023/12/07 01:09:21;;;;;;;24.13;15.02;;;3.20;99.90;;;;;;5113166;28;20248;-46
2023/12/07 01:11:51;;;;;;;28.77;15.13;;;3.30;99.90;;;;;;5095687;28;20183;-52
2023/12/07 01:14:35;;;;;;;24.55;15.95;;;3.20;99.90;;;;;;5113058;28;20208;-49
2023/12/07 01:17:08;;;;;;;27.73;15.73;;;3.20;99.90;;;;;;5096033;28;20172;-49
2023/12/07 01:19:49;;;;;;;22.30;15.57;;;3.20;99.90;;;;;;5114030;28;20156;-49
2023/12/07 01:22:47;;;;;;;29.48;16.13;;;3.30;99.90;;;;;;5095504;28;20188;-48
2023/12/07 01:25:21;;;;;;;25.63;15.10;;;3.30;99.90;;;;;;5094099;28;20610;-49
2023/12/07 01:28:11;;;;;;;24.40;14.75;;;3.20;99.90;;;;;;5095651;28;20204;-46
2023/12/07 01:30:47;;;;;;;23.05;14.82;;;3.10;99.90;;;;;;5095325;28;20241;-49
2023/12/07 01:33:16;;;;;;;26.75;15.30;;;3.30;99.90;;;;;;5114285;28;20168;-46
2023/12/07 01:35:44;;;;;;;29.23;16.85;;;3.30;99.90;;;;;;5114436;28;20160;-47
2023/12/07 01:38:10;;;;;;;27.67;16.60;;;3.20;99.90;;;;;;5095297;28;20169;-51
2023/12/07 01:40:57;;;;;;;34.90;16.55;;;3.30;99.90;;;;;;5095188;28;20176;-48
2023/12/07 01:43:32;;;;;;;26.52;15.38;;;3.20;99.90;;;;;;5077668;28;20180;-51
2023/12/07 01:46:21;;;;;;;28.20;16.48;;;3.40;99.90;;;;;;5074396;28;20254;-53
2023/12/07 01:48:49;;;;;;;26.50;16.15;;;3.20;99.90;;;;;;5074251;28;20226;-44
2023/12/07 01:51:33;;;;;;;32.90;17.98;;;3.40;99.90;;;;;;5092750;28;20173;-49
2023/12/07 01:54:25;;;;;;;28.35;16.15;;;3.40;99.90;;;;;;5092514;28;20586;-50
2023/12/07 01:56:57;;;;;;;32.78;18.05;;;3.30;99.90;;;;;;5064736;28;20181;-54
2023/12/07 01:59:42;;;;;;;37.42;16.80;;;4.20;99.90;;;;;;5074020;28;20169;-51
2023/12/07 02:02:26;;;;;;;37.78;16.40;;;3.30;99.90;;;;;;5074151;28;20219;-51
2023/12/07 02:05:10;;;;;;;25.63;15.95;;;3.20;99.90;;;;;;5092341;28;20177;-51
2023/12/07 02:07:47;;;;;;;27.00;15.43;;;3.30;99.90;;;;;;5074001;28;20315;-49
2023/12/07 02:10:24;;;;;;;33.95;16.58;;;3.30;99.90;;;;;;5074127;28;20233;-48
2023/12/07 02:13:07;;;;;;;42.78;18.25;;;3.20;99.90;;;;;;5079077;28;20172;-49
2023/12/07 02:15:41;;;;;;;44.70;18.13;;;3.10;99.90;;;;;;5081919;28;20180;-49
2023/12/07 02:18:31;;;;;;;30.52;16.30;;;3.20;99.90;;;;;;5073574;28;20199;-45
2023/12/07 02:21:20;;;;;;;32.92;17.88;;;3.30;99.90;;;;;;5073605;28;20292;-48
2023/12/07 02:23:57;;;;;;;34.05;18.45;;;3.20;99.90;;;;;;5092327;28;20495;-46
2023/12/07 02:26:30;;;;;;;29.30;17.58;;;3.30;99.90;;;;;;5058147;28;20200;-47
2023/12/07 02:29:28;;;;;;;32.38;16.95;;;3.20;99.90;;;;;;5075084;28;20543;-46
2023/12/07 02:32:10;;;;;;;31.15;17.33;;;3.30;99.90;;;;;;5091270;28;20184;-49
2023/12/07 02:34:58;;;;;;;;;;;;;;;;;;;;;
2023/12/07 02:37:37;;;;;;;40.65;19.23;;;3.30;99.90;;;;;;5089676;28;20177;-48
2023/12/07 02:40:28;;;;;;;35.38;18.90;;;3.20;99.90;;;;;;5092023;28;20168;-46
2023/12/07 02:43:11;;;;;;;41.85;19.52;;;3.20;99.90;;;;;;5079292;28;20172;-50
2023/12/07 02:45:49;;;;;;;34.78;17.25;;;3.40;99.90;;;;;;5076900;28;20263;-51
2023/12/07 02:48:17;;;;;;;38.53;20.65;;;3.20;99.90;;;;;;5094330;28;20231;-49
2023/12/07 02:50:51;;;;;;;40.88;21.08;;;3.20;99.90;;;;;;5092649;28;20169;-48
2023/12/07 02:53:30;;;;;;;32.17;17.88;;;3.20;99.90;;;;;;5093261;28;20617;-45
2023/12/07 02:56:02;;;;;;;36.38;19.13;;;3.30;99.90;;;;;;5093572;28;20176;-49
2023/12/07 02:58:34;;;;;;;38.55;21.33;;;3.40;99.90;;;;;;5093740;28;20244;-46
2023/12/07 03:01:10;;;;;;;40.22;20.83;;;3.30;99.90;;;;;;5092757;28;20263;-45
2023/12/07 03:04:03;;;;;;;44.92;23.40;;;3.20;99.90;;;;;;5111776;28;20611;-52
2023/12/07 03:06:35;;;;;;;43.08;21.02;;;3.20;99.90;;;;;;5089709;28;20205;-48
2023/12/07 03:09:05;;;;;;;40.88;19.70;;;3.10;99.90;;;;;;5111670;28;20173;-49
2023/12/07 03:12:30;;;;;;;35.63;19.15;;;3.30;99.90;;;;;;5093174;28;20200;-48
2023/12/07 03:14:33;;;;;;;35.40;20.02;;;3.10;99.90;;;;;;5079954;28;20181;-52
2023/12/07 03:17:43;;;;;;;;;;;;;;;;;;;;;
2023/12/07 03:20:03;;;;;;;35.72;19.60;;;3.10;99.90;;;;;;5085837;28;20177;-52
2023/12/07 03:22:49;;;;;;;38.53;19.88;;;3.10;99.90;;;;;;5072742;28;20169;-54
2023/12/07 03:25:41;;;;;;;40.22;19.95;;;3.20;99.90;;;;;;5073817;28;20177;-52
2023/12/07 03:28:13;;;;;;;30.90;17.67;;;3.20;99.90;;;;;;5065272;28;20262;-54
2023/12/07 03:30:54;;;;;;;28.27;16.17;;;3.10;99.90;;;;;;5073404;28;20616;-55
2023/12/07 03:33:23;;;;;;;32.70;19.40;;;3.10;99.90;;;;;;5091364;28;20170;-55
2023/12/07 03:36:20;;;;;;;;;;;;;;;;;;;;;
2023/12/07 03:39:04;;;;;;;;;;;;;;;;;;;;;
2023/12/07 03:41:45;;;;;;;30.08;18.70;;;3.20;99.90;;;;;;5094847;28;20662;-48
2023/12/07 03:44:23;;;;;;;31.45;18.23;;;3.00;99.90;;;;;;5095823;28;20682;-51
2023/12/07 03:47:08;;;;;;;31.08;18.42;;;3.10;99.90;;;;;;5076889;28;20216;-54
2023/12/07 03:49:50;;;;;;;31.58;19.35;;;3.00;99.90;;;;;;5076713;28;20173;-51
2023/12/07 03:52:16;;;;;;;37.00;19.73;;;3.00;99.90;;;;;;5075922;28;20230;-47
2023/12/07 03:57:32;;;;;;;39.42;20.23;;;3.00;99.90;;;;;;5076767;28;20174;-53
2023/12/07 04:00:26;;;;;;;35.95;17.52;;;2.80;99.90;;;;;;5076567;28;20554;-53
2023/12/07 04:03:00;;;;;;;28.17;17.02;;;3.00;99.90;;;;;;5094330;28;20248;-48
2023/12/07 04:05:40;;;;;;;;;;;;;;;;;;;;;
2023/12/07 04:08:11;;;;;;;27.83;16.80;;;2.70;99.90;;;;;;5094153;28;20305;-49
2023/12/07 04:10:40;;;;;;;31.42;18.10;;;2.80;99.90;;;;;;5075790;28;20641;-49
2023/12/07 04:13:27;;;;;;;30.08;17.52;;;2.60;99.90;;;;;;5076332;28;20208;-48
2023/12/07 04:16:14;;;;;;;29.10;17.92;;;2.70;99.90;;;;;;5094074;28;20169;-49
2023/12/07 04:18:56;;;;;;;30.80;19.75;;;2.80;99.90;;;;;;5075549;28;20192;-47
2023/12/07 04:21:30;;;;;;;35.58;19.42;;;2.70;99.90;;;;;;5075961;28;20272;-53
2023/12/07 04:23:59;;;;;;;32.83;18.05;;;2.70;99.90;;;;;;5093149;28;20178;-51
2023/12/07 04:26:49;;;;;;;36.78;20.08;;;2.70;99.90;;;;;;5093784;28;20197;-51
2023/12/07 04:29:42;;;;;;;28.67;17.58;;;2.80;99.90;;;;;;5076021;28;20169;-49
2023/12/07 04:32:11;;;;;;;28.48;17.92;;;2.60;99.90;;;;;;5075547;28;20199;-52
2023/12/07 04:34:43;;;;;;;26.73;17.20;;;2.60;99.90;;;;;;5093831;28;20516;-48
2023/12/07 04:37:08;;;;;;;29.63;16.92;;;2.60;99.90;;;;;;5075470;28;20260;-48
2023/12/07 04:40:41;;;;;;;33.50;16.80;;;2.50;99.90;;;;;;5075645;28;20264;-52
2023/12/07 04:43:02;;;;;;;31.83;17.60;;;2.60;99.90;;;;;;5088336;28;20178;-47
2023/12/07 04:45:48;;;;;;;26.17;17.00;;;2.50;99.90;;;;;;5109312;28;20174;-50
2023/12/07 04:48:17;;;;;;;29.13;17.90;;;2.60;99.90;;;;;;5075579;28;20189;-49
2023/12/07 04:50:53;;;;;;;34.30;18.52;;;2.60;99.90;;;;;;5076195;28;20567;-53
2023/12/07 04:53:33;;;;;;;32.30;17.27;;;2.70;99.90;;;;;;5093345;28;20217;-45
2023/12/07 04:56:19;;;;;;;37.15;19.75;;;2.60;99.90;;;;;;5090776;28;20181;-52
2023/12/07 04:59:05;;;;;;;29.52;17.35;;;2.50;99.90;;;;;;5075697;28;20226;-52
2023/12/07 05:02:14;;;;;;;32.75;19.60;;;2.60;99.90;;;;;;5093404;28;20223;-55
2023/12/07 05:04:29;;;;;;;27.35;17.85;;;2.50;99.90;;;;;;5085052;28;20185;-54
2023/12/07 05:07:03;;;;;;;32.10;18.17;;;2.60;99.90;;;;;;5108908;28;20295;-51
2023/12/07 05:09:32;;;;;;;30.05;17.88;;;2.80;99.90;;;;;;5093327;28;20165;-55
2023/12/07 05:12:03;;;;;;;28.90;17.75;;;2.80;99.90;;;;;;5076674;28;20183;-54
2023/12/07 05:14:46;;;;;;;27.73;17.02;;;2.70;99.90;;;;;;5113098;28;20161;-52
2023/12/07 05:17:13;;;;;;;28.50;16.67;;;2.60;99.90;;;;;;5095601;28;20169;-48
2023/12/07 05:19:51;;;;;;;28.23;16.75;;;2.80;99.90;;;;;;5113633;28;20199;-53
2023/12/07 05:22:21;;;;;;;26.45;17.63;;;2.80;99.90;;;;;;5113305;28;20337;-47
2023/12/07 05:25:13;;;;;;;31.63;18.98;;;2.80;99.90;;;;;;5094743;28;20176;-49
2023/12/07 05:27:44;;;;;;;34.80;19.52;;;2.80;99.90;;;;;;5094984;28;20209;-55
2023/12/07 05:30:15;;;;;;;39.38;23.08;;;2.80;99.90;;;;;;5094776;28;20248;-53
2023/12/07 05:32:45;;;;;;;35.08;21.23;;;2.70;99.90;;;;;;5112630;28;20576;-48
2023/12/07 05:35:24;;;;;;;33.67;18.83;;;2.80;99.90;;;;;;5113541;28;20187;-52
2023/12/07 05:37:53;;;;;;;27.25;17.15;;;2.70;99.90;;;;;;5094372;28;20539;-51
2023/12/07 05:40:23;;;;;;;26.92;17.08;;;2.50;99.90;;;;;;5113140;28;20161;-49
2023/12/07 05:43:03;;;;;;;34.70;16.85;;;2.50;99.90;;;;;;5085212;28;20177;-47
2023/12/07 05:45:37;;;;;;;28.48;15.75;;;2.60;99.90;;;;;;5096360;28;20222;-49
2023/12/07 05:48:07;;;;;;;24.90;15.07;;;2.60;99.90;;;;;;5107955;28;20265;-48
2023/12/07 05:50:34;;;;;;;23.70;15.07;;;2.40;99.90;;;;;;5091426;28;20219;-53
2023/12/07 05:52:59;;;;;;;29.73;15.77;;;2.50;99.90;;;;;;5091305;28;20221;-47
2023/12/07 05:55:25;;;;;;;26.65;15.00;;;2.70;99.90;;;;;;5091756;28;20166;-47
2023/12/07 05:57:51;;;;;;;25.00;16.13;;;2.70;99.90;;;;;;5091698;28;20195;-47
2023/12/07 06:00:18;;;;;;;22.35;14.52;;;2.70;99.90;;;;;;5091437;28;20177;-47
2023/12/07 06:02:44;;;;;;;27.58;15.82;;;2.70;99.90;;;;;;5091815;28;20173;-45
2023/12/07 06:05:10;;;;;;;28.02;15.02;;;2.50;99.90;;;;;;5091117;28;20222;-46
2023/12/07 06:07:36;;;;;;;24.65;14.52;;;2.60;99.90;;;;;;5091259;28;20257;-47
2023/12/07 06:10:02;;;;;;;23.27;14.23;;;2.60;99.90;;;;;;5091336;28;20161;-47
2023/12/07 06:12:27;;;;;;;26.83;14.70;;;2.50;99.90;;;;;;5099146;28;20639;-49
2023/12/07 06:14:53;;;;;;;23.17;15.20;;;2.40;99.90;;;;;;5111276;28;20157;-48
2023/12/07 06:17:21;;;;;;;24.38;13.40;;;2.40;99.90;;;;;;5111573;28;20659;-47
2023/12/07 06:19:46;;;;;;;20.35;13.57;;;2.60;99.90;;;;;;5111846;28;20226;-48
2023/12/07 06:22:13;;;;;;;22.08;12.27;;;2.50;99.90;;;;;;5112131;28;20549;-51
2023/12/07 06:24:39;;;;;;;20.75;11.18;;;2.50;99.90;;;;;;5111635;28;20157;-47
2023/12/07 06:27:05;;;;;;;22.17;12.38;;;2.30;99.90;;;;;;5111370;28;20208;-48
2023/12/07 06:29:30;;;;;;;18.85;11.30;;;2.40;99.90;;;;;;5111536;28;20158;-51
2023/12/07 06:31:56;;;;;;;19.00;12.35;;;2.50;99.90;;;;;;5111487;28;20522;-47
2023/12/07 06:34:22;;;;;;;17.33;10.82;;;2.50;99.90;;;;;;5111489;28;20164;-50
2023/12/07 06:36:47;;;;;;;22.05;12.05;;;2.50;99.90;;;;;;5111211;28;20165;-47
2023/12/07 06:39:14;;;;;;;19.27;11.45;;;2.40;99.90;;;;;;5111625;28;20214;-52
2023/12/07 06:41:40;;;;;;;18.48;11.43;;;2.40;99.90;;;;;;5110122;28;20195;-50
2023/12/07 06:44:06;;;;;;;21.08;12.10;;;2.20;99.90;;;;;;5090949;28;20679;-52
2023/12/07 06:46:32;;;;;;;19.27;11.60;;;2.20;99.90;;;;;;5090849;28;20224;-46
2023/12/07 06:48:57;;;;;;;17.65;12.48;;;2.30;99.90;;;;;;5105272;28;20557;-46
2023/12/07 06:51:23;;;;;;;18.73;11.38;;;2.20;99.90;;;;;;5110808;28;20238;-46
2023/12/07 06:53:48;;;;;;;22.27;11.88;;;2.30;99.90;;;;;;5110935;28;20152;-46
2023/12/07 06:56:14;;;;;;;19.65;11.07;;;2.30;99.90;;;;;;5111861;28;20245;-46
2023/12/07 06:58:40;;;;;;;19.02;10.98;;;2.10;99.90;;;;;;5111519;28;20168;-46
2023/12/07 07:01:06;;;;;;;16.30;11.02;;;2.20;99.90;;;;;;5110872;28;20624;-51
2023/12/07 07:03:31;;;;;;;21.75;11.88;;;2.30;99.90;;;;;;5111156;28;20261;-46
2023/12/07 07:05:59;;;;;;;18.33;11.75;;;2.40;99.90;;;;;;5110674;28;20206;-48
2023/12/07 07:08:24;;;;;;;21.17;11.23;;;2.40;99.90;;;;;;5111235;28;20233;-46
2023/12/07 07:10:50;;;;;;;20.00;11.32;;;2.40;99.90;;;;;;5111698;28;20157;-46
2023/12/07 07:13:16;;;;;;;21.48;11.43;;;2.40;99.90;;;;;;5100978;28;20187;-46
2023/12/07 07:15:45;;;;;;;22.08;11.77;;;2.50;99.90;;;;;;5095101;28;20192;-46
2023/12/07 07:18:11;;;;;;;23.10;11.30;;;2.50;99.90;;;;;;5094948;28;20177;-45
2023/12/07 07:20:37;;;;;;;18.85;10.80;;;2.40;99.90;;;;;;5094671;28;20169;-46
2023/12/07 07:23:02;;;;;;;22.60;12.13;;;2.40;99.90;;;;;;5094536;28;20161;-48
2023/12/07 07:25:28;;;;;;;15.75;10.93;;;2.30;99.90;;;;;;5094483;28;20237;-49
2023/12/07 07:27:54;;;;;;;16.00;10.45;;;2.30;99.90;;;;;;5094482;28;20201;-49
2023/12/07 07:30:20;;;;;;;20.42;11.25;;;2.40;99.90;;;;;;5094809;28;20173;-49
2023/12/07 07:32:46;;;;;;;16.77;10.77;;;2.50;99.90;;;;;;5094370;28;20169;-48
2023/12/07 07:35:11;;;;;;;18.00;11.02;;;2.40;99.90;;;;;;5094759;28;20553;-46
2023/12/07 07:37:38;;;;;;;15.77;10.85;;;2.40;99.90;;;;;;5093277;28;20180;-53
2023/12/07 07:40:06;;;;;;;17.98;11.30;;;2.30;99.90;;;;;;5094027;28;20617;-51
2023/12/07 07:42:32;;;;;;;20.83;10.63;;;2.30;99.90;;;;;;5102355;28;20203;-55
2023/12/07 07:44:58;;;;;;;17.67;12.23;;;2.40;99.90;;;;;;5113964;28;20601;-50
2023/12/07 07:47:24;;;;;;;16.23;11.40;;;2.40;99.90;;;;;;5114409;28;20232;-49
2023/12/07 07:49:49;;;;;;;20.23;11.45;;;2.40;99.90;;;;;;5114473;28;20165;-55
2023/12/07 07:52:15;;;;;;;18.85;10.65;;;2.40;99.90;;;;;;5114786;28;20243;-55
2023/12/07 07:54:40;;;;;;;16.77;10.68;;;2.40;99.90;;;;;;5114785;28;20240;-55
2023/12/07 07:57:06;;;;;;;15.80;10.95;;;2.20;99.90;;;;;;5113953;28;20165;-55
2023/12/07 07:59:31;;;;;;;14.20;10.00;;;2.30;99.90;;;;;;5114371;28;20195;-55
2023/12/07 08:01:57;;;;;;;16.08;11.45;;;2.20;99.90;;;;;;5114226;28;20168;-55
2023/12/07 08:04:23;;;;;;;16.42;10.75;;;2.30;99.90;;;;;;5113880;28;20528;-54
2023/12/07 08:06:48;;;;;;;16.13;10.23;;;2.30;99.90;;;;;;5114161;28;20203;-50
2023/12/07 08:09:17;;;;;;;14.63;10.20;;;2.30;99.90;;;;;;5114627;28;20164;-48
2023/12/07 08:11:44;;;;;;;16.92;10.45;;;2.20;99.90;;;;;;5096293;28;20192;-47
2023/12/07 08:14:10;;;;;;;16.13;11.02;;;2.20;99.90;;;;;;5093179;28;20177;-50
2023/12/07 08:16:35;;;;;;;15.48;10.55;;;2.30;99.90;;;;;;5112550;28;20497;-51
2023/12/07 08:19:01;;;;;;;15.27;10.15;;;2.50;99.90;;;;;;5094420;28;20513;-48
2023/12/07 08:21:29;;;;;;;17.92;11.75;;;2.40;99.90;;;;;;5112255;28;20179;-46
2023/12/07 08:23:55;;;;;;;17.17;10.85;;;2.40;99.90;;;;;;5112645;28;20157;-53
2023/12/07 08:26:21;;;;;;;17.48;11.25;;;2.40;99.90;;;;;;5112383;28;20195;-46
2023/12/07 08:28:47;;;;;;;14.98;9.98;;;2.50;99.90;;;;;;5094188;28;20211;-47
2023/12/07 08:31:13;;;;;;;15.23;10.43;;;2.40;99.90;;;;;;5094507;28;20187;-47
2023/12/07 08:33:40;;;;;;;16.67;10.23;;;2.50;99.90;;;;;;5111165;28;20207;-46
2023/12/07 08:36:06;;;;;;;13.10;9.30;;;2.40;99.90;;;;;;5110976;28;20319;-48
2023/12/07 08:38:42;;;;;;;17.35;10.48;;;2.50;99.90;;;;;;5077416;28;20394;-49
2023/12/07 08:41:08;;;;;;;13.15;9.70;;;2.40;99.90;;;;;;5112157;28;20159;-49
2023/12/07 08:43:35;;;;;;;16.83;10.40;;;2.50;99.90;;;;;;5095432;28;20177;-48
2023/12/07 08:46:00;;;;;;;17.60;9.98;;;2.60;99.90;;;;;;5073437;28;20165;-50
2023/12/07 08:48:26;;;;;;;15.60;9.73;;;2.60;99.90;;;;;;5091672;28;20680;-46
2023/12/07 08:50:51;;;;;;;16.35;9.18;;;2.80;99.90;;;;;;5091530;28;20165;-48
2023/12/07 08:53:18;;;;;;;14.80;9.73;;;2.90;99.90;;;;;;5091435;28;20278;-45
2023/12/07 08:55:43;;;;;;;16.45;9.95;;;3.00;99.90;;;;;;5092091;28;20169;-45
2023/12/07 08:58:10;;;;;;;16.13;10.50;;;2.90;99.90;;;;;;5091233;28;20161;-44
2023/12/07 09:00:36;;;;;;;15.48;10.02;;;3.00;99.90;;;;;;5091224;28;20214;-47
2023/12/07 09:03:02;;;;;;;13.60;9.05;;;3.10;99.90;;;;;;5091751;28;20583;-52
2023/12/07 09:05:27;;;;;;;14.40;9.88;;;3.10;99.90;;;;;;5091087;28;20166;-50
2023/12/07 09:07:53;;;;;;;15.40;9.63;;;3.20;99.90;;;;;;5091060;28;20257;-49
2023/12/07 09:10:19;;;;;;;14.48;8.88;;;3.20;99.90;;;;;;5091002;28;20169;-52
2023/12/07 09:12:45;;;;;;;14.40;10.43;;;3.20;99.90;;;;;;5102487;28;20200;-47
2023/12/07 09:15:12;;;;;;;15.10;9.90;;;3.40;99.90;;;;;;5111543;28;20513;-45
2023/12/07 09:17:38;;;;;;;16.67;10.88;;;3.50;99.90;;;;;;5111091;28;20176;-48
2023/12/07 09:20:06;;;;;;;18.13;10.40;;;3.50;99.90;;;;;;5111486;28;20192;-47
2023/12/07 09:22:33;;;;;;;14.02;10.60;;;3.50;99.90;;;;;;5111392;28;20179;-48
2023/12/07 09:24:59;;;;;;;16.17;11.40;;;3.60;99.90;;;;;;5111097;28;20161;-45
2023/12/07 09:27:24;;;;;;;18.25;12.25;;;3.70;99.90;;;;;;5110855;28;20211;-52
2023/12/07 09:29:51;;;;;;;18.92;11.13;;;3.80;99.90;;;;;;5111201;28;20547;-47
2023/12/07 09:32:16;;;;;;;18.83;10.70;;;3.80;99.90;;;;;;5110959;28;20222;-46
2023/12/07 09:34:42;;;;;;;18.10;11.75;;;3.70;99.90;;;;;;5110462;28;20165;-46
2023/12/07 09:37:08;;;;;;;18.63;10.55;;;3.80;99.90;;;;;;5110898;28;20172;-50
2023/12/07 09:39:34;;;;;;;14.45;10.27;;;3.80;99.90;;;;;;5110665;28;20689;-44
2023/12/07 09:42:00;;;;;;;21.20;12.30;;;3.70;99.90;;;;;;5105342;28;20185;-46
2023/12/07 09:44:26;;;;;;;16.90;10.55;;;3.70;99.90;;;;;;5099355;28;20673;-46
2023/12/07 09:46:52;;;;;;;17.23;11.07;;;3.80;99.90;;;;;;5110931;28;20299;-49
2023/12/07 09:49:18;;;;;;;21.02;11.48;;;3.70;99.90;;;;;;5110584;28;20252;-49
2023/12/07 09:51:46;;;;;;;16.00;11.80;;;3.70;99.90;;;;;;5108334;28;20287;-44
2023/12/07 09:54:11;;;;;;;17.70;12.02;;;3.70;99.90;;;;;;5090511;28;20169;-45
2023/12/07 09:56:37;;;;;;;20.42;11.93;;;3.70;99.90;;;;;;5090153;28;20529;-47
2023/12/07 09:59:04;;;;;;;21.47;15.67;;;3.70;99.90;;;;;;5089197;28;20477;-47
2023/12/07 10:01:30;;;;;;;19.48;12.77;;;3.60;99.90;;;;;;5090045;28;20173;-46
2023/12/07 10:04:25;;;;;;;18.73;12.50;;;3.60;99.90;;;;;;5090138;28;20173;-45
2023/12/07 10:06:51;;;;;;;20.23;12.60;;;3.60;99.90;;;;;;5089643;28;20205;-45
2023/12/07 10:09:18;;;;;;;21.45;12.60;;;3.70;99.90;;;;;;5089889;28;20209;-44
2023/12/07 10:11:44;;;;;;;17.75;12.75;;;3.80;99.90;;;;;;5090560;28;20168;-46
2023/12/07 10:14:10;;;;;;;21.17;14.52;;;3.90;99.90;;;;;;5090284;28;20173;-46
2023/12/07 10:16:37;;;;;;;19.00;12.55;;;4.00;99.90;;;;;;5090081;28;20614;-47
2023/12/07 10:19:17;;;;;;;21.13;12.93;;;4.00;99.90;;;;;;5089650;28;20168;-52
2023/12/07 10:21:44;;;;;;;23.08;13.80;;;4.10;99.90;;;;;;5071991;28;20173;-50
2023/12/07 10:24:10;;;;;;;24.90;14.15;;;4.20;99.90;;;;;;5090403;28;20307;-49
2023/12/07 10:26:37;;;;;;;26.98;14.40;;;4.30;99.90;;;;;;5089438;28;20773;-46
2023/12/07 10:29:05;;;;;;;17.83;12.93;;;4.40;99.90;;;;;;5089835;28;20181;-47
2023/12/07 10:31:32;;;;;;;21.23;13.00;;;4.30;99.90;;;;;;5089376;28;20192;-49
2023/12/07 10:33:58;;;;;;;17.70;13.05;;;4.30;99.90;;;;;;5089710;28;20191;-54
2023/12/07 10:36:24;;;;;;;19.75;13.63;;;4.30;99.90;;;;;;5089506;28;20689;-48
2023/12/07 10:38:52;;;;;;;20.63;13.90;;;4.40;99.90;;;;;;5089356;28;20244;-50
2023/12/07 10:41:23;;;;;;;21.80;13.35;;;4.40;99.90;;;;;;5089833;28;20524;-47
2023/12/07 10:44:00;;;;;;;50.85;25.33;;;4.30;99.90;;;;;;5071814;28;20173;-47
2023/12/07 10:46:26;;;;;;;26.83;17.65;;;4.20;99.90;;;;;;5089393;28;20197;-52
2023/12/07 10:49:01;;;;;;;23.15;14.27;;;4.30;99.90;;;;;;5089371;28;20169;-49
2023/12/07 10:51:37;;;;;;;23.90;14.82;;;4.30;99.90;;;;;;5089332;28;20300;-50
2023/12/07 10:54:04;;;;;;;24.13;14.07;;;4.30;99.90;;;;;;5089336;28;20160;-54
2023/12/07 10:56:44;;;;;;;22.88;15.23;;;4.40;99.90;;;;;;5071393;28;20173;-53
2023/12/07 10:59:11;;;;;;;19.95;12.95;;;4.40;99.90;;;;;;5089396;28;20218;-50
2023/12/07 11:01:39;;;;;;;21.30;13.10;;;4.30;99.90;;;;;;5089702;28;20636;-48
2023/12/07 11:04:06;;;;;;;17.13;11.32;;;4.30;99.90;;;;;;5089518;28;20162;-49
2023/12/07 11:06:32;;;;;;;14.95;11.25;;;4.40;99.90;;;;;;5094062;28;20215;-47
2023/12/07 11:09:01;;;;;;;17.55;12.05;;;4.30;99.90;;;;;;5109948;28;20172;-54
2023/12/07 11:11:46;;;;;;;16.35;10.95;;;4.40;99.90;;;;;;5106775;28;20805;-50
2023/12/07 11:14:12;;;;;;;20.02;12.05;;;4.30;99.90;;;;;;5089838;28;20204;-54
2023/12/07 11:16:42;;;;;;;17.00;10.75;;;4.40;99.90;;;;;;5089300;28;20169;-51
2023/12/07 11:19:44;;;;;;;16.67;11.65;;;4.30;99.90;;;;;;5089177;28;20154;-53
2023/12/07 11:22:13;;;;;;;13.07;9.40;;;4.40;99.90;;;;;;5007479;28;20619;-51
2023/12/07 11:24:58;;;;;;;13.25;9.65;;;4.40;99.90;;;;;;5074544;28;20173;-50
2023/12/07 11:27:24;;;;;;;17.48;11.35;;;4.30;99.90;;;;;;5089115;28;20596;-46
2023/12/07 11:29:51;;;;;;;20.70;11.13;;;4.30;99.90;;;;;;5088951;28;20633;-47
2023/12/07 11:32:16;;;;;;;14.43;10.23;;;4.40;99.90;;;;;;5088961;28;20678;-52
2023/12/07 11:34:43;;;;;;;15.20;11.23;;;4.20;99.90;;;;;;5071408;28;20278;-46
2023/12/07 11:37:10;;;;;;;16.52;11.55;;;4.30;99.90;;;;;;5105391;28;20173;-46
2023/12/07 11:39:37;;;;;;;13.80;11.05;;;4.50;99.90;;;;;;5089224;28;20172;-46
2023/12/07 11:42:14;;;;;;;17.80;10.05;;;4.40;99.90;;;;;;5088761;28;20795;-46
2023/12/07 11:44:41;;;;;;;15.98;10.30;;;4.50;99.90;;;;;;5071431;28;20161;-47
2023/12/07 11:47:08;;;;;;;16.98;9.60;;;4.40;99.90;;;;;;5089374;28;20672;-49
2023/12/07 11:49:34;;;;;;;13.40;8.88;;;4.30;99.90;;;;;;5088879;28;20158;-48
2023/12/07 11:52:00;;;;;;;13.70;10.27;;;4.40;99.90;;;;;;5088927;28;20696;-47
2023/12/07 11:54:27;;;;;;;14.27;10.20;;;4.40;99.90;;;;;;5088948;28;20165;-47
2023/12/07 11:56:54;;;;;;;14.73;10.05;;;4.40;99.90;;;;;;5089489;28;20513;-47
2023/12/07 11:59:19;;;;;;;17.08;9.82;;;4.40;99.90;;;;;;5074545;28;20153;-49
2023/12/07 12:01:48;;;;;;;17.63;10.50;;;4.40;99.90;;;;;;5092437;28;20199;-49
2023/12/07 12:04:18;;;;;;;13.43;9.25;;;4.30;99.90;;;;;;5092695;28;20645;-47
2023/12/07 12:06:46;;;;;;;13.05;9.43;;;4.20;99.90;;;;;;5093221;28;20208;-52
2023/12/07 12:09:17;;;;;;;16.70;11.00;;;4.20;99.90;;;;;;5092822;28;20222;-55
2023/12/07 12:11:47;;;;;;;32.33;20.63;;;4.20;99.90;;;;;;5091714;28;20181;-48
2023/12/07 12:14:16;;;;;;;15.70;10.60;;;4.20;99.90;;;;;;5092631;28;20165;-55
2023/12/07 12:16:42;;;;;;;12.23;9.30;;;4.20;99.90;;;;;;5092853;28;20165;-53
2023/12/07 12:19:09;;;;;;;18.60;12.30;;;4.20;99.90;;;;;;5073959;28;20658;-52
2023/12/07 12:21:38;;;;;;;13.27;10.07;;;4.20;99.90;;;;;;5092293;28;20161;-49
2023/12/07 12:24:05;;;;;;;24.38;14.23;;;4.20;99.90;;;;;;5092317;28;20174;-49
2023/12/07 12:26:33;;;;;;;16.50;10.55;;;4.10;99.90;;;;;;5092036;28;20691;-52
2023/12/07 12:28:59;;;;;;;20.70;12.43;;;4.10;99.90;;;;;;5092098;28;20653;-53
2023/12/07 12:31:25;;;;;;;29.00;14.15;;;4.10;99.90;;;;;;5091952;28;20540;-55
2023/12/07 12:33:50;;;;;;;77.05;28.98;;;4.10;99.90;;;;;;5091894;28;20169;-53
2023/12/07 12:36:23;;;;;;;28.98;14.23;;;4.10;99.90;;;;;;5091923;28;20177;-54
2023/12/07 12:38:50;;;;;;;29.38;15.60;;;4.10;99.90;;;;;;5104686;28;20192;-55
2023/12/07 12:41:20;;;;;;;25.25;14.82;;;4.20;99.90;;;;;;5112477;28;20169;-51
2023/12/07 12:43:46;;;;;;;21.88;14.82;;;4.20;99.90;;;;;;5112061;28;20165;-54
2023/12/07 12:46:12;;;;;;;24.50;15.57;;;4.20;99.90;;;;;;5112439;28;20174;-54
2023/12/07 12:48:52;;;;;;;16.13;11.05;;;4.20;99.90;;;;;;5112031;28;20786;-49
2023/12/07 12:51:17;;;;;;;17.35;12.35;;;4.20;99.90;;;;;;5111966;28;20456;-52
2023/12/07 12:53:49;;;;;;;17.42;12.10;;;4.10;99.90;;;;;;5112338;28;20235;-49
2023/12/07 12:56:15;;;;;;;17.10;11.10;;;4.20;99.90;;;;;;5111879;28;20259;-46
2023/12/07 12:58:40;;;;;;;15.07;10.93;;;4.10;99.90;;;;;;5111804;28;20691;-53
2023/12/07 13:01:06;;;;;;;18.98;11.63;;;4.10;99.90;;;;;;5111911;28;20218;-50
2023/12/07 13:03:32;;;;;;;16.75;11.07;;;4.00;99.90;;;;;;5092581;28;20175;-52
2023/12/07 13:05:58;;;;;;;19.30;12.63;;;4.00;99.90;;;;;;5091150;28;20248;-47